Pagrindinis puslapis
METAR-TAF:

METAR-TAF

Oro uostai :

Utti, Suomija

platuma: 60-54N, ilguma: 026-56E, Aukštis: 100 m

Dabartinis oras

Ataskaita buvo paskelbta 25 minutes, ne 09:20 UTC
Vėjas 10 kt iš Pietų/Pietryčių
Temperatūra -3°C
Drėgmė 93%
Slėgis 1010 hPa
Matomumas 10 km arba daugiau
Su prošvaistėmis ne aukštis 1500 ft
Apsiniaukę ne aukštis 4300 ft
sniegas

METAR: EFUT 100920Z AUTO 16010KT 9999 -SHSN BKN015 OVC043 M03/M04 Q1010

Laikas: 11:45 (09:45 UTC)

Prognozė

Ataskaita buvo paskelbta 22 valandos ir 21 minutes, ne 11:24 UTC
Prognozė galioja nuo 09 metu 12 UTC su 09 metu 15 UTC
Vėjas 3 kt iš Rytų
Matomumas 10 km arba daugiau
Su prošvaistėmis ne aukštis 300 ft
Tapsmas
nuo 09 metu 12 UTC su 09 metu 15 UTC
Su prošvaistėmis ne aukštis 500 ft
Laikinai
nuo 09 metu 12 UTC su 09 metu 15 UTC
Matomumas: 2500 m
sniegas

TAF: EFUT 091124Z 0912/0915 10003KT 9999 BKN003 BECMG 0912/0915 BKN005 TEMPO 0912/0915 2500 SHSN

Orai ataskaitas ir orų prognozės (METAR, TAF).

turimą stotys yra geltonos ir raudonos taškus žemėlapyje.

Perkelti pele per norėdami pamatyti stoties vardą.

Tada spustelėkite, norėdami matyti oro stebėjimo ir prognozės.

Norėdami pakeisti žemėlapį: spustelėkite ant žalios mygtukų su juodo kryžiaus žemyn,; žalią mygtuką su brūkšneliu, jei norite nutolinti; arba žalių rodyklių gretimoms žemėlapius.


METAR-TAF: